Time;durP1;ratioP1;P1;durP2;ratioP2;P2;SDS_P1;SDS_P2;PMS_P1;PMS_P2;Temp;Humidity;BMP_temperature;BMP_pressure;BME280_temperature;BME280_humidity;BME280_pressure;Samples;Min_cycle;Max_cycle;Signal;HPM_P1;HPM_P2
2022/10/23 00:01:22;;;;;;;15.27;10.82;;;13.00;99.90;;;;;;5024147;28;20100;-64
2022/10/23 00:03:52;;;;;;;14.18;10.30;;;13.00;99.90;;;;;;5022427;28;20022;-64
2022/10/23 00:06:18;;;;;;;16.65;10.43;;;13.00;99.90;;;;;;5024868;28;20112;-64
2022/10/23 00:08:45;;;;;;;13.85;10.05;;;13.00;99.90;;;;;;5024889;28;20079;-64
2022/10/23 00:11:13;;;;;;;14.85;10.63;;;13.00;99.90;;;;;;5031026;28;20026;-64
2022/10/23 00:13:39;;;;;;;13.23;10.13;;;12.90;99.90;;;;;;5025515;28;20473;-64
2022/10/23 00:16:05;;;;;;;16.58;10.40;;;12.90;99.90;;;;;;5027111;28;20018;-64
2022/10/23 00:18:30;;;;;;;16.50;10.15;;;12.90;99.90;;;;;;5022648;28;20026;-64
2022/10/23 00:20:56;;;;;;;15.23;10.25;;;12.90;99.90;;;;;;5028037;28;20036;-64
2022/10/23 00:23:22;;;;;;;13.55;10.13;;;12.90;99.90;;;;;;5018123;28;20026;-64
2022/10/23 00:25:47;;;;;;;19.00;10.43;;;13.00;99.90;;;;;;5019536;28;20048;-64
2022/10/23 00:28:13;;;;;;;13.68;9.77;;;12.90;99.90;;;;;;5020665;28;20033;-64
2022/10/23 00:30:39;;;;;;;14.32;9.68;;;12.90;99.90;;;;;;5021712;28;20065;-64
2022/10/23 00:33:04;;;;;;;12.77;8.57;;;13.00;99.90;;;;;;5019906;28;20040;-64
2022/10/23 00:35:30;;;;;;;13.73;8.23;;;12.90;99.90;;;;;;5019605;28;20029;-64
2022/10/23 00:37:55;;;;;;;9.57;8.20;;;12.90;99.90;;;;;;5021701;28;20557;-64
2022/10/23 00:40:21;;;;;;;14.82;8.60;;;12.90;99.90;;;;;;5027272;28;20052;-64
2022/10/23 00:42:46;;;;;;;16.45;8.55;;;12.90;99.90;;;;;;5019088;28;20482;-64
2022/10/23 00:45:17;;;;;;;13.30;8.55;;;12.90;99.90;;;;;;5036050;28;20056;-64
2022/10/23 00:47:43;;;;;;;11.10;8.15;;;13.00;99.90;;;;;;5021190;28;20048;-64
2022/10/23 00:50:09;;;;;;;9.77;7.65;;;13.00;99.90;;;;;;5019416;28;20029;-64
2022/10/23 00:52:40;;;;;;;12.70;7.15;;;13.00;99.90;;;;;;5020052;28;20061;-64
2022/10/23 00:55:05;;;;;;;13.13;8.38;;;13.00;99.90;;;;;;5018782;28;20437;-64
2022/10/23 00:57:31;;;;;;;14.98;8.05;;;13.00;99.90;;;;;;5024669;28;20490;-64
2022/10/23 00:59:57;;;;;;;14.68;7.97;;;13.00;99.90;;;;;;5026208;28;20049;-64
2022/10/23 01:02:22;;;;;;;9.00;7.07;;;13.00;99.90;;;;;;5021054;28;20285;-64
2022/10/23 01:04:48;;;;;;;11.15;7.60;;;12.90;99.90;;;;;;5024566;28;20536;-64
2022/10/23 01:07:31;;;;;;;12.27;6.68;;;12.90;99.90;;;;;;5026639;28;20521;-64
2022/10/23 01:10:00;;;;;;;12.38;6.93;;;13.00;99.90;;;;;;5020945;28;20075;-64
2022/10/23 01:12:47;;;;;;;9.00;6.30;;;12.90;99.90;;;;;;5014889;28;20037;-64
2022/10/23 01:15:20;;;;;;;10.88;6.35;;;13.00;99.90;;;;;;5023335;28;20033;-64
2022/10/23 01:18:07;;;;;;;7.47;6.25;;;13.00;99.90;;;;;;5021109;28;20092;-64
2022/10/23 01:20:43;;;;;;;10.13;6.75;;;13.00;99.90;;;;;;5024036;28;20030;-64
2022/10/23 01:23:30;;;;;;;12.63;6.43;;;13.00;99.90;;;;;;5023780;28;20115;-64
2022/10/23 01:26:24;;;;;;;9.52;6.10;;;13.00;99.90;;;;;;5020412;28;20107;-64
2022/10/23 01:28:58;;;;;;;10.57;6.32;;;13.00;99.90;;;;;;5018873;28;20081;-64
2022/10/23 01:31:36;;;;;;;9.90;5.75;;;13.00;99.90;;;;;;5027877;28;20026;-64
2022/10/23 01:34:11;;;;;;;10.60;6.40;;;13.00;99.90;;;;;;5022735;28;20026;-64
2022/10/23 01:36:40;;;;;;;12.75;6.20;;;13.00;99.90;;;;;;5023725;28;20025;-64
2022/10/23 01:39:17;;;;;;;10.55;5.95;;;13.00;99.90;;;;;;5026479;28;20060;-64
2022/10/23 01:41:51;;;;;;;7.18;5.50;;;13.00;99.90;;;;;;5036224;28;20548;-64
2022/10/23 01:44:28;;;;;;;11.05;6.50;;;13.00;99.90;;;;;;5023614;28;20045;-64
2022/10/23 01:46:56;;;;;;;12.70;6.32;;;13.00;99.90;;;;;;5028385;28;20072;-64
2022/10/23 01:49:22;;;;;;;14.02;6.07;;;13.00;99.90;;;;;;5026508;28;20029;-64
2022/10/23 01:51:53;;;;;;;9.18;6.32;;;12.90;99.90;;;;;;5024132;28;20037;-64
2022/10/23 01:54:27;;;;;;;10.25;6.70;;;13.00;99.90;;;;;;5013554;28;20033;-64
2022/10/23 01:56:55;;;;;;;11.40;6.53;;;12.90;99.90;;;;;;5039717;28;20029;-64
2022/10/23 01:59:28;;;;;;;11.18;6.50;;;12.90;99.90;;;;;;5026143;28;20098;-64
2022/10/23 02:01:56;;;;;;;13.82;6.40;;;12.90;99.90;;;;;;5025166;28;20071;-64
2022/10/23 02:04:29;;;;;;;12.18;6.75;;;12.80;99.90;;;;;;5023538;28;20476;-64
2022/10/23 02:06:55;;;;;;;14.27;6.82;;;12.80;99.90;;;;;;5025949;28;20017;-64
2022/10/23 02:09:20;;;;;;;12.38;6.78;;;12.80;99.90;;;;;;5028855;28;20028;-64
2022/10/23 02:12:01;;;;;;;11.07;6.25;;;12.80;99.90;;;;;;5028466;28;20018;-64
2022/10/23 02:14:48;;;;;;;16.15;8.23;;;12.80;99.90;;;;;;5027961;28;20036;-64
2022/10/23 02:17:52;;;;;;;13.65;7.10;;;12.80;99.90;;;;;;5023146;28;20091;-64
2022/10/23 02:20:20;;;;;;;12.07;6.45;;;12.70;99.90;;;;;;5004943;28;20030;-63
2022/10/23 02:22:59;;;;;;;10.43;6.68;;;12.70;99.90;;;;;;5000939;28;20461;-64
2022/10/23 02:25:32;;;;;;;10.30;6.20;;;12.70;99.90;;;;;;5025580;28;20769;-64
2022/10/23 02:28:01;;;;;;;15.05;6.32;;;12.70;99.90;;;;;;5020673;28;20036;-64
2022/10/23 02:30:29;;;;;;;13.55;6.95;;;12.70;99.90;;;;;;5023693;28;20500;-64
2022/10/23 02:32:56;;;;;;;12.05;6.30;;;12.70;99.90;;;;;;5025798;28;20504;-64
2022/10/23 02:35:23;;;;;;;12.95;6.28;;;12.70;99.90;;;;;;5019892;28;20041;-64
2022/10/23 02:37:58;;;;;;;10.38;6.20;;;12.70;99.90;;;;;;5016037;28;20029;-64
2022/10/23 02:40:33;;;;;;;16.45;6.80;;;12.70;99.90;;;;;;5024136;28;20071;-64
2022/10/23 02:43:22;;;;;;;10.23;7.43;;;12.70;99.90;;;;;;5026102;28;20492;-64
2022/10/23 02:45:52;;;;;;;10.77;6.72;;;12.70;99.90;;;;;;5024206;28;20389;-64
2022/10/23 02:48:19;;;;;;;12.93;6.90;;;12.70;99.90;;;;;;5025790;28;20125;-64
2022/10/23 02:51:13;;;;;;;11.77;7.47;;;12.70;99.90;;;;;;5027304;28;20021;-64
2022/10/23 02:53:58;;;;;;;14.75;7.05;;;12.70;99.90;;;;;;5019542;28;20022;-64
2022/10/23 02:56:43;;;;;;;12.43;6.28;;;12.70;99.90;;;;;;5042754;28;20025;-64
2022/10/23 02:59:23;;;;;;;10.25;6.22;;;12.70;99.90;;;;;;5023697;28;20034;-64
2022/10/23 03:01:53;;;;;;;10.23;6.40;;;12.70;99.90;;;;;;5024424;28;20071;-64
2022/10/23 03:04:24;;;;;;;8.05;5.82;;;12.70;99.90;;;;;;5019598;28;20038;-64
2022/10/23 03:06:50;;;;;;;12.85;7.38;;;12.70;99.90;;;;;;5025547;28;20363;-64
2022/10/23 03:09:17;;;;;;;10.48;6.35;;;12.70;99.90;;;;;;5025912;28;20029;-64
2022/10/23 03:11:42;;;;;;;13.65;6.38;;;12.70;99.90;;;;;;5025545;28;20030;-64
2022/10/23 03:14:10;;;;;;;9.98;6.60;;;12.70;99.90;;;;;;5021824;28;20036;-64
2022/10/23 03:16:35;;;;;;;11.98;6.15;;;12.80;99.90;;;;;;5020285;28;20064;-64
2022/10/23 03:19:01;;;;;;;9.82;6.70;;;12.80;99.90;;;;;;5026795;28;20121;-64
2022/10/23 03:21:26;;;;;;;9.77;6.40;;;12.80;99.90;;;;;;5019266;28;20051;-64
2022/10/23 03:23:52;;;;;;;14.05;6.40;;;12.80;99.90;;;;;;5018588;28;20076;-64
2022/10/23 03:26:17;;;;;;;15.93;6.95;;;12.80;99.90;;;;;;5022790;28;20038;-64
2022/10/23 03:28:43;;;;;;;13.50;7.20;;;12.90;99.90;;;;;;5019870;28;20025;-64
2022/10/23 03:31:08;;;;;;;12.82;5.90;;;12.80;99.90;;;;;;5028899;28;20014;-64
2022/10/23 03:33:34;;;;;;;10.00;5.88;;;12.90;99.90;;;;;;5020741;28;20369;-64
2022/10/23 03:35:59;;;;;;;7.57;5.82;;;12.90;99.90;;;;;;5021940;28;20021;-64
2022/10/23 03:38:25;;;;;;;8.73;5.18;;;12.90;99.90;;;;;;5024136;28;20037;-64
2022/10/23 03:40:50;;;;;;;9.10;5.93;;;12.90;99.90;;;;;;5019638;28;20424;-64
2022/10/23 03:43:16;;;;;;;9.57;5.38;;;13.00;99.90;;;;;;5027558;28;20033;-63
2022/10/23 03:45:41;;;;;;;8.85;5.60;;;13.00;99.90;;;;;;5026982;28;20017;-64
2022/10/23 03:48:07;;;;;;;11.20;5.30;;;13.00;99.90;;;;;;5022418;28;20068;-64
2022/10/23 03:50:33;;;;;;;7.85;3.83;;;13.10;99.90;;;;;;5028588;28;20053;-64
2022/10/23 03:52:59;;;;;;;6.65;3.55;;;13.10;99.90;;;;;;5014323;28;20505;-64
2022/10/23 03:55:25;;;;;;;8.82;4.25;;;13.10;99.90;;;;;;5024225;28;20021;-64
2022/10/23 03:57:52;;;;;;;8.00;4.82;;;13.10;99.90;;;;;;5026560;28;20025;-64
2022/10/23 04:00:18;;;;;;;5.85;3.80;;;13.20;99.90;;;;;;5023400;28;20090;-64
2022/10/23 04:02:43;;;;;;;7.75;4.20;;;13.20;99.90;;;;;;5028575;28;20112;-64
2022/10/23 04:05:09;;;;;;;6.07;3.67;;;13.20;99.90;;;;;;5024366;28;20052;-64
2022/10/23 04:07:35;;;;;;;9.85;4.60;;;13.20;99.90;;;;;;5020312;28;20077;-64
2022/10/23 04:10:01;;;;;;;9.10;4.43;;;13.30;99.90;;;;;;5040668;28;20025;-64
2022/10/23 04:12:26;;;;;;;6.22;4.20;;;13.30;99.90;;;;;;5026013;28;20029;-64
2022/10/23 04:14:52;;;;;;;7.43;4.13;;;13.30;99.90;;;;;;5022187;28;20026;-64
2022/10/23 04:17:17;;;;;;;9.05;4.72;;;13.30;99.90;;;;;;5030932;28;20025;-64
2022/10/23 04:19:43;;;;;;;7.85;4.53;;;13.30;99.90;;;;;;5025209;28;20033;-64
2022/10/23 04:22:08;;;;;;;8.23;5.10;;;13.30;99.90;;;;;;5022823;28;20025;-64
2022/10/23 04:24:34;;;;;;;6.45;4.03;;;13.30;99.90;;;;;;5022585;28;20057;-64
2022/10/23 04:26:59;;;;;;;8.13;3.70;;;13.30;99.90;;;;;;5029281;28;20075;-64
2022/10/23 04:29:25;;;;;;;5.88;4.10;;;13.30;99.90;;;;;;5020685;28;20071;-64
2022/10/23 04:31:50;;;;;;;8.85;4.57;;;13.40;99.90;;;;;;5021471;28;20371;-64
2022/10/23 04:34:17;;;;;;;5.00;3.55;;;13.30;99.90;;;;;;5027663;28;20531;-64
2022/10/23 04:36:43;;;;;;;6.28;3.72;;;13.40;99.90;;;;;;5022103;28;20021;-64
2022/10/23 04:39:09;;;;;;;5.57;3.63;;;13.40;99.90;;;;;;5027361;28;20033;-64
2022/10/23 04:41:37;;;;;;;10.82;3.35;;;13.40;99.90;;;;;;5025243;28;20025;-64
2022/10/23 04:44:03;;;;;;;6.13;3.30;;;13.40;99.90;;;;;;5024005;28;20120;-64
2022/10/23 04:46:28;;;;;;;8.13;2.95;;;13.40;99.90;;;;;;5020349;28;20147;-64
2022/10/23 04:48:53;;;;;;;4.15;2.90;;;13.40;99.90;;;;;;5025050;28;20401;-64
2022/10/23 04:51:19;;;;;;;6.45;3.03;;;13.40;99.90;;;;;;5024857;28;20057;-64
2022/10/23 04:53:45;;;;;;;7.32;4.82;;;13.40;99.90;;;;;;5023036;28;20060;-64
2022/10/23 04:56:13;;;;;;;7.25;3.95;;;13.40;99.90;;;;;;5027374;28;20030;-64
2022/10/23 04:58:40;;;;;;;6.73;3.60;;;13.50;99.90;;;;;;5024321;28;20025;-64
2022/10/23 05:01:06;;;;;;;9.73;4.00;;;13.50;99.90;;;;;;5024655;28;20036;-64
2022/10/23 05:03:32;;;;;;;6.80;3.97;;;13.50;99.90;;;;;;5018264;28;20022;-64
2022/10/23 05:05:57;;;;;;;5.45;3.28;;;13.50;99.90;;;;;;5023710;28;20017;-64
2022/10/23 05:08:23;;;;;;;4.82;3.20;;;13.50;99.90;;;;;;5017826;28;20034;-64
2022/10/23 05:10:50;;;;;;;7.10;3.70;;;13.50;99.90;;;;;;5022286;28;20025;-64
2022/10/23 05:13:18;;;;;;;6.32;3.90;;;13.60;99.90;;;;;;5018079;28;20044;-64
2022/10/23 05:15:48;;;;;;;7.85;3.80;;;13.60;99.90;;;;;;5022985;28;20022;-64
2022/10/23 05:18:25;;;;;;;10.48;4.70;;;13.60;99.90;;;;;;5023914;28;20029;-64
2022/10/23 05:20:56;;;;;;;8.73;5.15;;;13.60;99.90;;;;;;5020194;28;20033;-64
2022/10/23 05:23:23;;;;;;;10.55;5.43;;;13.60;99.90;;;;;;5026151;28;20026;-64
2022/10/23 05:25:49;;;;;;;13.23;5.53;;;13.60;99.90;;;;;;5027524;28;20428;-64
2022/10/23 05:28:15;;;;;;;12.35;6.15;;;13.60;99.90;;;;;;5037553;28;20037;-64
2022/10/23 05:30:41;;;;;;;10.38;5.68;;;13.70;99.90;;;;;;5021136;28;20037;-64
2022/10/23 05:33:07;;;;;;;10.75;5.65;;;13.70;99.90;;;;;;5023869;28;20462;-64
2022/10/23 05:35:33;;;;;;;11.38;6.05;;;13.70;99.90;;;;;;5024003;28;20040;-64
2022/10/23 05:38:00;;;;;;;7.68;5.22;;;13.70;99.90;;;;;;5025211;28;20034;-64
2022/10/23 05:40:26;;;;;;;11.85;5.70;;;13.70;99.90;;;;;;5026420;28;20112;-64
2022/10/23 05:42:51;;;;;;;10.65;5.80;;;13.70;99.90;;;;;;5023866;28;20438;-64
2022/10/23 05:45:17;;;;;;;10.52;5.50;;;13.80;99.90;;;;;;5018909;28;20477;-64
2022/10/23 05:47:44;;;;;;;9.90;5.15;;;13.80;99.90;;;;;;5027444;28;20034;-64
2022/10/23 05:50:10;;;;;;;12.13;5.25;;;13.80;99.90;;;;;;5028510;28;20112;-64
2022/10/23 05:52:35;;;;;;;10.80;6.13;;;13.80;99.90;;;;;;5029737;28;20087;-64
2022/10/23 05:55:01;;;;;;;10.52;5.85;;;13.80;99.90;;;;;;5032312;28;20017;-64
2022/10/23 05:57:27;;;;;;;9.38;4.95;;;13.80;99.90;;;;;;5027964;28;20463;-64
2022/10/23 05:59:52;;;;;;;10.95;5.45;;;13.80;99.90;;;;;;5030728;28;20509;-64
2022/10/23 06:02:33;;;;;;;9.20;5.05;;;13.80;99.90;;;;;;5031485;28;20486;-64
2022/10/23 06:04:58;;;;;;;11.40;4.85;;;13.80;99.90;;;;;;5033019;28;20111;-64
2022/10/23 06:07:25;;;;;;;13.05;5.43;;;13.80;99.90;;;;;;5032210;28;20068;-64
2022/10/23 06:09:51;;;;;;;9.32;5.50;;;13.80;99.90;;;;;;5031542;28;20028;-64
2022/10/23 06:12:18;;;;;;;8.63;4.75;;;13.80;99.90;;;;;;5032315;28;20421;-64
2022/10/23 06:14:43;;;;;;;10.80;5.13;;;13.90;99.90;;;;;;5032292;28;20083;-64
2022/10/23 06:17:09;;;;;;;6.60;5.00;;;13.80;99.90;;;;;;5019110;28;20021;-64
2022/10/23 06:19:34;;;;;;;10.55;5.70;;;13.80;99.90;;;;;;5032414;28;20091;-64
2022/10/23 06:22:00;;;;;;;11.30;5.45;;;13.80;99.90;;;;;;5032108;28;20394;-64
2022/10/23 06:24:25;;;;;;;6.20;4.78;;;13.80;99.90;;;;;;5032411;28;20116;-64
2022/10/23 06:26:51;;;;;;;10.43;4.22;;;13.80;99.90;;;;;;5032206;28;20033;-64
2022/10/23 06:29:16;;;;;;;5.95;4.38;;;13.80;99.90;;;;;;5019487;28;20455;-64
2022/10/23 06:31:42;;;;;;;6.78;4.43;;;13.80;99.90;;;;;;5019762;28;20521;-64
2022/10/23 06:34:10;;;;;;;7.53;4.78;;;13.90;99.90;;;;;;5032143;28;20466;-64
2022/10/23 06:36:36;;;;;;;7.00;4.60;;;13.90;99.90;;;;;;5031952;28;20080;-64
2022/10/23 06:39:03;;;;;;;9.85;5.25;;;13.90;99.90;;;;;;5030960;28;20030;-64
2022/10/23 06:41:28;;;;;;;8.90;4.72;;;13.90;99.90;;;;;;5023361;28;20030;-64
2022/10/23 06:43:54;;;;;;;9.60;5.05;;;13.90;99.90;;;;;;5027699;28;20398;-64
2022/10/23 06:46:20;;;;;;;9.68;4.55;;;13.90;99.90;;;;;;5031097;28;20045;-64
2022/10/23 06:48:45;;;;;;;8.93;4.60;;;13.90;99.90;;;;;;5029745;28;20488;-64
2022/10/23 06:51:13;;;;;;;10.90;4.63;;;13.90;99.90;;;;;;5029644;28;20017;-64
2022/10/23 06:53:39;;;;;;;9.23;4.55;;;14.00;99.90;;;;;;5031191;28;20029;-64
2022/10/23 06:56:06;;;;;;;9.18;4.72;;;14.00;99.90;;;;;;5031419;28;20500;-64
2022/10/23 06:58:34;;;;;;;6.45;4.18;;;14.00;99.90;;;;;;5043381;28;20053;-63
2022/10/23 07:01:02;;;;;;;8.50;4.53;;;14.00;99.90;;;;;;5030182;28;20116;-64
2022/10/23 07:03:28;;;;;;;9.23;5.47;;;14.00;99.90;;;;;;5030137;28;20048;-64
2022/10/23 07:05:53;;;;;;;13.50;5.18;;;14.00;99.90;;;;;;5031866;28;20025;-64
2022/10/23 07:08:20;;;;;;;8.45;4.63;;;14.00;99.90;;;;;;5034868;28;20037;-64
2022/10/23 07:10:46;;;;;;;8.27;4.50;;;14.00;99.90;;;;;;5033981;28;20101;-64
2022/10/23 07:13:12;;;;;;;10.68;4.93;;;14.00;99.90;;;;;;5034497;28;20465;-64
2022/10/23 07:15:40;;;;;;;7.70;4.20;;;14.00;99.90;;;;;;5034239;28;20096;-64
2022/10/23 07:18:05;;;;;;;7.68;4.65;;;14.00;99.90;;;;;;5034530;28;20512;-63
2022/10/23 07:20:31;;;;;;;10.02;4.75;;;14.10;99.90;;;;;;5035230;28;20025;-64
2022/10/23 07:22:57;;;;;;;8.50;4.50;;;14.10;99.90;;;;;;5034827;28;20030;-64
2022/10/23 07:25:24;;;;;;;7.43;4.63;;;14.10;99.90;;;;;;5033120;28;20030;-64
2022/10/23 07:27:50;;;;;;;6.80;4.13;;;14.10;99.90;;;;;;5025585;28;20493;-63
2022/10/23 07:30:16;;;;;;;6.20;3.55;;;14.10;99.90;;;;;;5029134;28;20320;-64
2022/10/23 07:32:42;;;;;;;9.70;4.55;;;14.10;99.90;;;;;;5015291;28;20025;-64
2022/10/23 07:35:09;;;;;;;6.55;3.92;;;14.10;99.90;;;;;;5030845;28;20030;-63
2022/10/23 07:37:35;;;;;;;7.85;3.92;;;14.10;99.90;;;;;;5033068;28;20120;-64
2022/10/23 07:40:02;;;;;;;6.25;3.55;;;14.10;99.90;;;;;;5033520;28;20113;-64
2022/10/23 07:42:27;;;;;;;6.78;4.40;;;14.20;99.90;;;;;;5032698;28;20021;-63
2022/10/23 07:44:53;;;;;;;8.35;4.20;;;14.20;99.90;;;;;;5022756;28;20054;-64
2022/10/23 07:47:18;;;;;;;12.02;4.05;;;14.20;99.90;;;;;;5027560;28;20061;-63
2022/10/23 07:49:44;;;;;;;9.15;3.65;;;14.20;99.90;;;;;;5025957;28;20049;-64
2022/10/23 07:52:09;;;;;;;9.65;4.32;;;14.20;99.90;;;;;;5035151;28;20051;-64
2022/10/23 07:54:35;;;;;;;8.43;4.15;;;14.20;99.90;;;;;;5034638;28;20033;-64
2022/10/23 07:57:00;;;;;;;10.20;4.00;;;14.20;99.90;;;;;;5034816;28;20117;-64
2022/10/23 07:59:26;;;;;;;9.40;3.72;;;14.20;99.90;;;;;;5034621;28;20021;-64
2022/10/23 08:01:55;;;;;;;6.35;3.63;;;14.30;99.90;;;;;;5032132;28;20490;-64
2022/10/23 08:04:21;;;;;;;11.40;4.07;;;14.30;99.90;;;;;;5031213;28;20107;-64
2022/10/23 08:06:47;;;;;;;7.85;3.78;;;14.30;99.90;;;;;;5033063;28;20516;-64
2022/10/23 08:09:12;;;;;;;7.40;3.50;;;14.30;99.90;;;;;;5033336;28;20045;-63
2022/10/23 08:11:38;;;;;;;5.63;3.08;;;14.40;99.90;;;;;;5033100;28;20092;-64
2022/10/23 08:14:04;;;;;;;7.22;3.58;;;14.40;99.90;;;;;;5033539;28;20030;-64
2022/10/23 08:16:35;;;;;;;11.73;4.32;;;14.50;99.90;;;;;;5032305;28;20071;-64
2022/10/23 08:19:02;;;;;;;10.60;3.60;;;14.50;99.90;;;;;;5031110;28;20104;-64
2022/10/23 08:21:27;;;;;;;7.03;3.28;;;14.50;99.90;;;;;;5017997;28;20045;-63
2022/10/23 08:23:58;;;;;;;9.70;3.65;;;14.50;99.90;;;;;;5031732;28;20481;-64
2022/10/23 08:26:25;;;;;;;7.00;3.25;;;14.60;99.90;;;;;;5031548;28;20021;-63
2022/10/23 08:28:57;;;;;;;8.43;3.38;;;14.70;99.90;;;;;;5033058;28;20101;-64
2022/10/23 08:31:22;;;;;;;8.55;3.38;;;14.70;99.90;;;;;;5030842;28;20022;-64
2022/10/23 08:33:48;;;;;;;5.00;3.00;;;14.70;99.90;;;;;;5033124;28;20025;-64
2022/10/23 08:36:21;;;;;;;5.32;3.03;;;14.80;99.90;;;;;;5032518;28;20030;-63
2022/10/23 08:38:47;;;;;;;5.57;3.55;;;14.90;99.90;;;;;;5031538;28;20032;-64
2022/10/23 08:41:33;;;;;;;5.75;3.25;;;14.90;99.90;;;;;;5047599;28;20071;-64
2022/10/23 08:44:24;;;;;;;7.03;2.67;;;15.00;99.90;;;;;;5032480;28;20038;-64
2022/10/23 08:47:13;;;;;;;6.97;2.92;;;15.10;99.90;;;;;;5032421;28;20092;-64
2022/10/23 08:49:58;;;;;;;5.70;2.75;;;15.20;99.90;;;;;;5030153;28;20156;-64
2022/10/23 08:52:36;;;;;;;4.47;2.85;;;15.20;99.90;;;;;;5047069;28;20028;-64
2022/10/23 08:55:24;;;;;;;7.65;3.20;;;15.30;99.90;;;;;;5030768;28;20056;-64
2022/10/23 08:58:02;;;;;;;6.40;2.90;;;15.40;99.90;;;;;;5032561;28;20076;-64
2022/10/23 09:00:29;;;;;;;7.47;3.10;;;15.40;99.90;;;;;;5032278;28;20029;-64
2022/10/23 09:02:55;;;;;;;5.57;2.97;;;15.40;99.90;;;;;;5032482;28;20029;-64
2022/10/23 09:05:38;;;;;;;7.65;3.60;;;15.40;99.90;;;;;;5032043;28;20437;-64
2022/10/23 09:08:14;;;;;;;5.78;2.85;;;15.40;99.90;;;;;;5015600;28;20128;-64
2022/10/23 09:11:13;;;;;;;5.75;3.08;;;15.40;99.90;;;;;;5030338;28;20026;-64
2022/10/23 09:13:53;;;;;;;5.20;3.08;;;15.40;99.90;;;;;;5028524;28;20079;-64
2022/10/23 09:16:51;;;;;;;7.72;2.97;;;15.30;99.90;;;;;;5028896;28;20029;-64
2022/10/23 09:19:26;;;;;;;5.53;3.38;;;15.30;99.90;;;;;;5024232;28;20096;-64
2022/10/23 09:21:54;;;;;;;7.07;3.60;;;15.30;99.90;;;;;;5031326;28;20017;-64
2022/10/23 09:24:23;;;;;;;6.07;3.33;;;15.40;99.90;;;;;;5032027;28;20033;-64
2022/10/23 09:26:51;;;;;;;5.97;3.23;;;15.30;99.90;;;;;;5031499;28;20036;-64
2022/10/23 09:29:34;;;;;;;17.08;4.03;;;15.40;99.90;;;;;;5031241;28;20087;-64
2022/10/23 09:32:10;;;;;;;4.90;2.90;;;15.40;99.90;;;;;;5031344;28;20401;-63
2022/10/23 09:34:50;;;;;;;6.97;3.10;;;15.40;99.90;;;;;;5031561;28;20474;-64
2022/10/23 09:37:26;;;;;;;7.32;3.28;;;15.40;99.90;;;;;;5031657;28;20070;-64
2022/10/23 09:40:29;;;;;;;4.80;2.83;;;15.50;99.90;;;;;;5031928;28;20397;-64
2022/10/23 09:42:57;;;;;;;9.07;3.40;;;15.50;99.90;;;;;;5025714;28;20029;-64
2022/10/23 09:45:29;;;;;;;6.78;2.33;;;15.50;99.90;;;;;;5031211;28;20357;-64
2022/10/23 09:48:07;;;;;;;3.80;2.47;;;15.60;99.90;;;;;;5030111;28;20044;-64
2022/10/23 09:50:33;;;;;;;7.53;3.28;;;15.70;99.90;;;;;;5031760;28;20014;-64
2022/10/23 09:52:59;;;;;;;10.27;3.42;;;15.70;99.90;;;;;;5031273;28;20032;-63
2022/10/23 09:55:26;;;;;;;6.78;2.17;;;15.70;99.90;;;;;;5027213;28;20060;-64
2022/10/23 09:57:53;;;;;;;6.15;2.70;;;15.70;99.90;;;;;;5031059;28;20034;-64
2022/10/23 10:00:25;;;;;;;9.38;2.53;;;15.80;99.90;;;;;;5030110;28;20034;-64
2022/10/23 10:02:58;;;;;;;4.22;2.67;;;15.80;99.90;;;;;;5030205;28;20025;-63
2022/10/23 10:05:27;;;;;;;4.32;2.40;;;15.90;99.90;;;;;;5029008;28;20461;-64
2022/10/23 10:08:11;;;;;;;6.60;2.45;;;15.90;99.90;;;;;;5022993;28;20034;-64
2022/10/23 10:10:46;;;;;;;4.55;1.92;;;15.90;99.90;;;;;;5029913;28;20034;-63
2022/10/23 10:13:37;;;;;;;5.80;2.03;;;16.00;99.90;;;;;;5030449;28;20140;-64
2022/10/23 10:16:29;;;;;;;4.78;2.38;;;16.10;99.90;;;;;;5020553;28;20025;-64
2022/10/23 10:19:31;;;;;;;6.25;2.08;;;16.10;99.90;;;;;;5022184;28;20496;-64
2022/10/23 10:22:41;;;;;;;4.60;2.20;;;16.20;99.90;;;;;;5028156;28;20112;-64
2022/10/23 10:25:18;;;;;;;4.93;2.00;;;16.20;99.90;;;;;;5028738;28;20117;-64
2022/10/23 10:28:23;;;;;;;6.57;1.90;;;16.30;99.90;;;;;;5025923;28;20452;-64
2022/10/23 10:30:55;;;;;;;4.28;2.08;;;16.30;99.90;;;;;;5027185;28;20105;-64
2022/10/23 10:33:29;;;;;;;4.30;2.00;;;16.30;99.90;;;;;;5019791;28;20037;-64
2022/10/23 10:36:26;;;;;;;6.60;1.60;;;16.40;99.90;;;;;;5022326;28;20049;-64
2022/10/23 10:39:00;;;;;;;2.95;1.40;;;16.50;99.90;;;;;;5026967;28;20029;-64
2022/10/23 10:41:40;;;;;;;4.55;1.95;;;16.50;99.90;;;;;;5023706;28;20097;-64
2022/10/23 10:44:13;;;;;;;2.65;1.48;;;16.50;99.90;;;;;;5036009;28;20136;-64
2022/10/23 10:46:59;;;;;;;4.97;1.83;;;16.60;99.90;;;;;;5036175;28;20029;-64
2022/10/23 10:49:43;;;;;;;4.15;1.60;;;16.60;99.90;;;;;;5024935;28;20036;-64
2022/10/23 10:52:41;;;;;;;4.00;1.77;;;16.80;99.90;;;;;;5036042;28;20021;-64
2022/10/23 10:55:37;;;;;;;3.85;1.60;;;16.80;99.90;;;;;;5015805;28;20025;-64
2022/10/23 10:58:36;;;;;;;3.63;1.73;;;16.90;99.90;;;;;;5029598;28;20473;-64
2022/10/23 11:01:25;;;;;;;5.07;2.10;;;16.90;99.90;;;;;;5007154;28;20048;-64
2022/10/23 11:04:13;;;;;;;4.55;1.92;;;16.90;99.90;;;;;;5039592;28;20551;-64
2022/10/23 11:06:50;;;;;;;3.55;1.75;;;17.00;99.90;;;;;;5033947;28;20156;-64
2022/10/23 11:09:20;;;;;;;2.45;1.20;;;17.00;99.90;;;;;;5049227;28;20082;-64
2022/10/23 11:11:47;;;;;;;3.53;1.52;;;17.10;99.90;;;;;;5035557;28;20469;-64
2022/10/23 11:14:29;;;;;;;9.43;1.92;;;17.20;99.90;;;;;;5034632;28;20026;-64
2022/10/23 11:17:15;;;;;;;4.60;1.65;;;17.30;99.90;;;;;;5030531;28;20113;-64
2022/10/23 11:19:47;;;;;;;6.70;1.58;;;17.40;99.90;;;;;;5033606;28;20416;-64
2022/10/23 11:22:26;;;;;;;6.85;2.25;;;17.60;99.90;;;;;;5022834;28;20029;-64
2022/10/23 11:24:55;;;;;;;6.57;1.92;;;17.70;99.90;;;;;;5033783;28;20025;-64
2022/10/23 11:27:47;;;;;;;5.57;1.80;;;17.80;99.90;;;;;;5035262;28;20456;-64
2022/10/23 11:30:55;;;;;;;2.85;1.58;;;17.90;99.90;;;;;;5035405;28;20018;-64
2022/10/23 11:33:26;;;;;;;4.18;1.90;;;18.10;99.90;;;;;;5032525;28;20017;-64
2022/10/23 11:36:18;;;;;;;19.20;4.95;;;18.20;99.90;;;;;;5034262;28;20035;-64
2022/10/23 11:38:52;;;;;;;9.52;2.88;;;18.30;99.90;;;;;;5028357;28;20018;-64
2022/10/23 11:41:24;;;;;;;4.65;1.75;;;18.40;99.90;;;;;;5023134;28;20017;-64
2022/10/23 11:43:56;;;;;;;5.40;1.83;;;18.50;99.60;;;;;;5035037;28;20111;-64
2022/10/23 11:46:24;;;;;;;4.03;2.08;;;18.40;99.60;;;;;;5035276;28;20060;-64
2022/10/23 11:48:57;;;;;;;3.45;1.70;;;18.40;99.70;;;;;;5034615;28;20018;-64
2022/10/23 11:51:34;;;;;;;2.28;1.20;;;18.40;99.70;;;;;;5034412;28;20017;-64
2022/10/23 11:54:21;;;;;;;6.60;1.92;;;18.60;99.90;;;;;;5015923;28;20018;-64
2022/10/23 11:57:14;;;;;;;4.07;1.77;;;18.90;99.20;;;;;;5015374;28;20026;-64
2022/10/23 11:59:48;;;;;;;4.78;1.95;;;19.00;98.90;;;;;;5033058;28;20084;-64
2022/10/23 12:02:30;;;;;;;6.65;1.75;;;19.20;98.20;;;;;;5025136;28;20017;-64
2022/10/23 12:05:07;;;;;;;6.43;1.90;;;19.60;97.70;;;;;;5025323;28;20030;-64
2022/10/23 12:07:36;;;;;;;6.45;1.60;;;20.00;96.80;;;;;;5020437;28;20022;-64
2022/10/23 12:10:06;;;;;;;4.40;1.50;;;20.10;95.70;;;;;;5024393;28;20040;-64
2022/10/23 12:12:41;;;;;;;5.80;1.60;;;20.10;95.80;;;;;;5034391;28;20025;-64
2022/10/23 12:15:18;;;;;;;4.82;1.77;;;20.20;96.20;;;;;;5024665;28;20029;-64
2022/10/23 12:17:45;;;;;;;2.90;1.27;;;20.20;95.10;;;;;;5024030;28;20030;-64
2022/10/23 12:20:10;;;;;;;4.80;1.33;;;20.30;94.80;;;;;;5029483;28;20057;-64
2022/10/23 12:22:45;;;;;;;4.28;1.98;;;20.30;95.10;;;;;;5026367;28;20111;-64
2022/10/23 12:25:27;;;;;;;5.28;1.67;;;20.30;95.00;;;;;;5030033;28;20525;-64
2022/10/23 12:28:28;;;;;;;4.60;2.17;;;20.20;94.80;;;;;;5031937;28;20026;-64
2022/10/23 12:31:27;;;;;;;6.20;1.30;;;20.10;94.80;;;;;;5029908;28;20053;-64
2022/10/23 12:34:29;;;;;;;4.07;1.55;;;19.90;95.20;;;;;;5024394;28;20109;-64
2022/10/23 12:37:11;;;;;;;2.65;1.58;;;19.90;95.30;;;;;;5018490;28;20038;-64
2022/10/23 12:39:38;;;;;;;2.72;1.20;;;19.80;95.30;;;;;;5024595;28;20036;-64
2022/10/23 12:42:13;;;;;;;4.53;1.70;;;19.70;95.60;;;;;;5032204;28;20026;-64
2022/10/23 12:44:38;;;;;;;4.75;1.80;;;19.70;95.80;;;;;;5030476;28;20382;-64
2022/10/23 12:47:04;;;;;;;3.88;1.40;;;19.70;95.80;;;;;;5032050;28;20052;-64
2022/10/23 12:49:32;;;;;;;5.32;1.45;;;19.70;96.00;;;;;;5033406;28;20033;-64
2022/10/23 12:52:00;;;;;;;4.75;1.48;;;19.80;95.60;;;;;;5031973;28;20029;-64
2022/10/23 12:54:34;;;;;;;3.42;1.20;;;19.70;95.80;;;;;;5021604;28;20562;-64
2022/10/23 12:57:02;;;;;;;8.77;1.75;;;19.60;96.10;;;;;;5016303;28;20038;-64
2022/10/23 12:59:38;;;;;;;5.60;1.45;;;19.70;96.30;;;;;;5029332;28;20028;-64
2022/10/23 13:02:21;;;;;;;5.30;1.80;;;19.70;95.80;;;;;;5032193;28;20473;-65
2022/10/23 13:04:48;;;;;;;4.68;1.48;;;19.60;96.20;;;;;;5029399;28;20057;-64
2022/10/23 13:07:19;;;;;;;4.32;1.80;;;19.50;95.90;;;;;;5031663;28;20022;-64